sensor_id;sensor_type;location;lat;lon;timestamp;P1;durP1;ratioP1;P2;durP2;ratioP2
26951;SDS011;14507;52.418;13.398;2023-08-01T00:00:43;11.60;;;4.75;;
26951;SDS011;14507;52.418;13.398;2023-08-01T00:03:08;11.45;;;3.70;;
26951;SDS011;14507;52.418;13.398;2023-08-01T00:05:34;6.50;;;3.53;;
26951;SDS011;14507;52.418;13.398;2023-08-01T00:07:59;8.50;;;3.47;;
26951;SDS011;14507;52.418;13.398;2023-08-01T00:10:27;8.70;;;3.58;;
26951;SDS011;14507;52.418;13.398;2023-08-01T00:12:53;8.20;;;3.78;;
26951;SDS011;14507;52.418;13.398;2023-08-01T00:15:18;8.73;;;3.92;;
26951;SDS011;14507;52.418;13.398;2023-08-01T00:17:44;8.85;;;3.70;;
26951;SDS011;14507;52.418;13.398;2023-08-01T00:20:10;9.15;;;3.40;;
26951;SDS011;14507;52.418;13.398;2023-08-01T00:22:35;8.43;;;3.53;;
26951;SDS011;14507;52.418;13.398;2023-08-01T00:25:01;7.35;;;3.33;;
26951;SDS011;14507;52.418;13.398;2023-08-01T00:27:27;7.28;;;3.20;;
26951;SDS011;14507;52.418;13.398;2023-08-01T00:29:53;6.95;;;2.63;;
26951;SDS011;14507;52.418;13.398;2023-08-01T00:32:19;6.40;;;2.58;;
26951;SDS011;14507;52.418;13.398;2023-08-01T00:34:44;7.47;;;2.67;;
26951;SDS011;14507;52.418;13.398;2023-08-01T00:37:10;5.50;;;2.67;;
26951;SDS011;14507;52.418;13.398;2023-08-01T00:39:36;6.10;;;2.78;;
26951;SDS011;14507;52.418;13.398;2023-08-01T00:42:02;5.40;;;2.55;;
26951;SDS011;14507;52.418;13.398;2023-08-01T00:44:28;8.60;;;2.83;;
26951;SDS011;14507;52.418;13.398;2023-08-01T00:46:53;8.00;;;2.90;;
26951;SDS011;14507;52.418;13.398;2023-08-01T00:49:19;5.90;;;2.60;;
26951;SDS011;14507;52.418;13.398;2023-08-01T00:51:45;5.60;;;2.63;;
26951;SDS011;14507;52.418;13.398;2023-08-01T00:54:10;5.93;;;2.65;;
26951;SDS011;14507;52.418;13.398;2023-08-01T00:56:36;6.50;;;2.95;;
26951;SDS011;14507;52.418;13.398;2023-08-01T00:59:02;5.55;;;2.85;;
26951;SDS011;14507;52.418;13.398;2023-08-01T01:01:28;5.75;;;2.75;;
26951;SDS011;14507;52.418;13.398;2023-08-01T01:03:53;7.00;;;3.15;;
26951;SDS011;14507;52.418;13.398;2023-08-01T01:08:59;6.95;;;3.10;;
26951;SDS011;14507;52.418;13.398;2023-08-01T01:11:25;5.40;;;2.75;;
26951;SDS011;14507;52.418;13.398;2023-08-01T01:13:50;8.40;;;3.83;;
26951;SDS011;14507;52.418;13.398;2023-08-01T01:16:19;8.05;;;3.15;;
26951;SDS011;14507;52.418;13.398;2023-08-01T01:18:45;6.05;;;3.45;;
26951;SDS011;14507;52.418;13.398;2023-08-01T01:21:11;6.40;;;3.35;;
26951;SDS011;14507;52.418;13.398;2023-08-01T01:23:36;6.60;;;3.35;;
26951;SDS011;14507;52.418;13.398;2023-08-01T01:26:03;7.03;;;3.30;;
26951;SDS011;14507;52.418;13.398;2023-08-01T01:28:31;8.32;;;3.88;;
26951;SDS011;14507;52.418;13.398;2023-08-01T01:30:58;8.98;;;3.47;;
26951;SDS011;14507;52.418;13.398;2023-08-01T01:33:25;6.55;;;3.15;;
26951;SDS011;14507;52.418;13.398;2023-08-01T01:35:51;9.15;;;3.70;;
26951;SDS011;14507;52.418;13.398;2023-08-01T01:38:16;7.50;;;3.38;;
26951;SDS011;14507;52.418;13.398;2023-08-01T01:40:42;7.78;;;3.67;;
26951;SDS011;14507;52.418;13.398;2023-08-01T01:43:08;7.70;;;4.10;;
26951;SDS011;14507;52.418;13.398;2023-08-01T01:45:33;8.73;;;3.97;;
26951;SDS011;14507;52.418;13.398;2023-08-01T01:48:00;9.73;;;3.95;;
26951;SDS011;14507;52.418;13.398;2023-08-01T01:50:25;9.15;;;3.90;;
26951;SDS011;14507;52.418;13.398;2023-08-01T01:52:51;7.93;;;3.97;;
26951;SDS011;14507;52.418;13.398;2023-08-01T01:55:17;9.48;;;3.83;;
26951;SDS011;14507;52.418;13.398;2023-08-01T01:57:42;7.88;;;3.80;;
26951;SDS011;14507;52.418;13.398;2023-08-01T02:00:08;8.40;;;3.85;;
26951;SDS011;14507;52.418;13.398;2023-08-01T02:02:35;8.73;;;3.92;;
26951;SDS011;14507;52.418;13.398;2023-08-01T02:05:01;8.60;;;4.20;;
26951;SDS011;14507;52.418;13.398;2023-08-01T02:07:29;6.55;;;3.90;;
26951;SDS011;14507;52.418;13.398;2023-08-01T02:09:54;7.35;;;3.83;;
26951;SDS011;14507;52.418;13.398;2023-08-01T02:12:20;7.68;;;4.20;;
26951;SDS011;14507;52.418;13.398;2023-08-01T02:14:46;7.03;;;3.83;;
26951;SDS011;14507;52.418;13.398;2023-08-01T02:17:11;7.95;;;4.15;;
26951;SDS011;14507;52.418;13.398;2023-08-01T02:19:37;6.75;;;4.25;;
26951;SDS011;14507;52.418;13.398;2023-08-01T02:22:02;9.55;;;3.97;;
26951;SDS011;14507;52.418;13.398;2023-08-01T02:24:28;8.70;;;4.25;;
26951;SDS011;14507;52.418;13.398;2023-08-01T02:26:54;9.98;;;4.32;;
26951;SDS011;14507;52.418;13.398;2023-08-01T02:29:19;9.63;;;4.10;;
26951;SDS011;14507;52.418;13.398;2023-08-01T02:31:45;11.32;;;4.13;;
26951;SDS011;14507;52.418;13.398;2023-08-01T02:34:10;9.27;;;4.90;;
26951;SDS011;14507;52.418;13.398;2023-08-01T02:36:36;9.95;;;4.22;;
26951;SDS011;14507;52.418;13.398;2023-08-01T02:39:02;8.60;;;4.22;;
26951;SDS011;14507;52.418;13.398;2023-08-01T02:41:27;8.10;;;4.10;;
26951;SDS011;14507;52.418;13.398;2023-08-01T02:43:53;8.57;;;4.20;;
26951;SDS011;14507;52.418;13.398;2023-08-01T02:46:19;10.05;;;4.13;;
26951;SDS011;14507;52.418;13.398;2023-08-01T02:48:48;8.90;;;4.00;;
26951;SDS011;14507;52.418;13.398;2023-08-01T02:51:13;6.85;;;3.97;;
26951;SDS011;14507;52.418;13.398;2023-08-01T02:53:39;8.82;;;4.22;;
26951;SDS011;14507;52.418;13.398;2023-08-01T02:56:06;9.75;;;4.53;;
26951;SDS011;14507;52.418;13.398;2023-08-01T02:58:33;10.85;;;4.28;;
26951;SDS011;14507;52.418;13.398;2023-08-01T03:00:59;7.47;;;4.00;;
26951;SDS011;14507;52.418;13.398;2023-08-01T03:03:26;10.77;;;4.40;;
26951;SDS011;14507;52.418;13.398;2023-08-01T03:05:52;6.45;;;3.80;;
26951;SDS011;14507;52.418;13.398;2023-08-01T03:08:18;8.02;;;3.60;;
26951;SDS011;14507;52.418;13.398;2023-08-01T03:10:44;11.65;;;4.00;;
26951;SDS011;14507;52.418;13.398;2023-08-01T03:13:10;8.27;;;4.22;;
26951;SDS011;14507;52.418;13.398;2023-08-01T03:15:36;9.93;;;4.30;;
26951;SDS011;14507;52.418;13.398;2023-08-01T03:18:02;6.70;;;3.53;;
26951;SDS011;14507;52.418;13.398;2023-08-01T03:20:29;9.07;;;3.88;;
26951;SDS011;14507;52.418;13.398;2023-08-01T03:22:54;7.03;;;3.67;;
26951;SDS011;14507;52.418;13.398;2023-08-01T03:25:20;5.75;;;3.25;;
26951;SDS011;14507;52.418;13.398;2023-08-01T03:27:46;8.25;;;3.90;;
26951;SDS011;14507;52.418;13.398;2023-08-01T03:30:11;8.52;;;3.90;;
26951;SDS011;14507;52.418;13.398;2023-08-01T03:32:37;8.07;;;3.60;;
26951;SDS011;14507;52.418;13.398;2023-08-01T03:35:03;8.50;;;3.85;;
26951;SDS011;14507;52.418;13.398;2023-08-01T03:37:30;8.13;;;3.77;;
26951;SDS011;14507;52.418;13.398;2023-08-01T03:39:55;8.45;;;3.97;;
26951;SDS011;14507;52.418;13.398;2023-08-01T03:42:21;11.13;;;3.85;;
26951;SDS011;14507;52.418;13.398;2023-08-01T03:44:46;9.90;;;3.45;;
26951;SDS011;14507;52.418;13.398;2023-08-01T03:47:12;8.73;;;3.88;;
26951;SDS011;14507;52.418;13.398;2023-08-01T03:49:38;9.63;;;3.78;;
26951;SDS011;14507;52.418;13.398;2023-08-01T03:52:04;8.25;;;3.78;;
26951;SDS011;14507;52.418;13.398;2023-08-01T03:54:30;7.97;;;3.70;;
26951;SDS011;14507;52.418;13.398;2023-08-01T03:56:56;4.80;;;3.30;;
26951;SDS011;14507;52.418;13.398;2023-08-01T03:59:22;6.82;;;3.45;;
26951;SDS011;14507;52.418;13.398;2023-08-01T04:01:48;8.95;;;3.90;;
26951;SDS011;14507;52.418;13.398;2023-08-01T04:04:13;7.72;;;3.88;;
26951;SDS011;14507;52.418;13.398;2023-08-01T04:06:39;7.75;;;3.55;;
26951;SDS011;14507;52.418;13.398;2023-08-01T04:09:04;11.27;;;3.63;;
26951;SDS011;14507;52.418;13.398;2023-08-01T04:11:31;7.25;;;3.58;;
26951;SDS011;14507;52.418;13.398;2023-08-01T04:13:57;9.13;;;3.40;;
26951;SDS011;14507;52.418;13.398;2023-08-01T04:16:23;6.07;;;3.15;;
26951;SDS011;14507;52.418;13.398;2023-08-01T04:18:48;8.80;;;3.40;;
26951;SDS011;14507;52.418;13.398;2023-08-01T04:21:14;5.93;;;3.47;;
26951;SDS011;14507;52.418;13.398;2023-08-01T04:23:40;8.80;;;3.80;;
26951;SDS011;14507;52.418;13.398;2023-08-01T04:26:06;7.40;;;3.40;;
26951;SDS011;14507;52.418;13.398;2023-08-01T04:28:32;7.95;;;3.58;;
26951;SDS011;14507;52.418;13.398;2023-08-01T04:30:58;7.35;;;3.50;;
26951;SDS011;14507;52.418;13.398;2023-08-01T04:33:24;6.85;;;2.80;;
26951;SDS011;14507;52.418;13.398;2023-08-01T04:35:50;8.02;;;3.53;;
26951;SDS011;14507;52.418;13.398;2023-08-01T04:38:15;9.23;;;4.03;;
26951;SDS011;14507;52.418;13.398;2023-08-01T04:40:41;7.63;;;3.65;;
26951;SDS011;14507;52.418;13.398;2023-08-01T04:43:07;5.82;;;3.28;;
26951;SDS011;14507;52.418;13.398;2023-08-01T04:45:34;9.07;;;3.77;;
26951;SDS011;14507;52.418;13.398;2023-08-01T04:48:00;6.88;;;3.72;;
26951;SDS011;14507;52.418;13.398;2023-08-01T04:50:26;7.75;;;3.28;;
26951;SDS011;14507;52.418;13.398;2023-08-01T04:52:51;8.40;;;3.97;;
26951;SDS011;14507;52.418;13.398;2023-08-01T04:55:17;8.48;;;3.88;;
26951;SDS011;14507;52.418;13.398;2023-08-01T04:57:42;7.28;;;4.00;;
26951;SDS011;14507;52.418;13.398;2023-08-01T05:00:09;6.78;;;3.15;;
26951;SDS011;14507;52.418;13.398;2023-08-01T05:02:35;7.72;;;3.95;;
26951;SDS011;14507;52.418;13.398;2023-08-01T05:05:01;8.75;;;3.88;;
26951;SDS011;14507;52.418;13.398;2023-08-01T05:07:27;6.30;;;3.60;;
26951;SDS011;14507;52.418;13.398;2023-08-01T05:09:52;6.28;;;3.70;;
26951;SDS011;14507;52.418;13.398;2023-08-01T05:12:18;7.63;;;3.67;;
26951;SDS011;14507;52.418;13.398;2023-08-01T05:14:43;8.23;;;3.78;;
26951;SDS011;14507;52.418;13.398;2023-08-01T05:17:09;5.97;;;3.60;;
26951;SDS011;14507;52.418;13.398;2023-08-01T05:19:35;8.35;;;3.75;;
26951;SDS011;14507;52.418;13.398;2023-08-01T05:22:00;10.45;;;3.58;;
26951;SDS011;14507;52.418;13.398;2023-08-01T05:24:26;12.30;;;4.05;;
26951;SDS011;14507;52.418;13.398;2023-08-01T05:26:52;6.68;;;3.10;;
26951;SDS011;14507;52.418;13.398;2023-08-01T05:29:17;7.75;;;3.67;;
26951;SDS011;14507;52.418;13.398;2023-08-01T05:31:43;8.70;;;3.40;;
26951;SDS011;14507;52.418;13.398;2023-08-01T05:34:09;7.53;;;3.50;;
26951;SDS011;14507;52.418;13.398;2023-08-01T05:36:34;5.68;;;3.25;;
26951;SDS011;14507;52.418;13.398;2023-08-01T05:39:01;6.25;;;3.33;;
26951;SDS011;14507;52.418;13.398;2023-08-01T05:41:27;8.40;;;3.28;;
26951;SDS011;14507;52.418;13.398;2023-08-01T05:43:53;6.78;;;3.20;;
26951;SDS011;14507;52.418;13.398;2023-08-01T05:46:18;7.05;;;3.70;;
26951;SDS011;14507;52.418;13.398;2023-08-01T05:48:44;6.00;;;3.08;;
26951;SDS011;14507;52.418;13.398;2023-08-01T05:51:10;5.65;;;3.08;;
26951;SDS011;14507;52.418;13.398;2023-08-01T05:53:35;5.88;;;3.22;;
26951;SDS011;14507;52.418;13.398;2023-08-01T05:56:01;7.75;;;3.55;;
26951;SDS011;14507;52.418;13.398;2023-08-01T05:58:27;8.07;;;3.33;;
26951;SDS011;14507;52.418;13.398;2023-08-01T06:00:53;6.57;;;3.22;;
26951;SDS011;14507;52.418;13.398;2023-08-01T06:03:18;6.07;;;2.88;;
26951;SDS011;14507;52.418;13.398;2023-08-01T06:05:44;5.45;;;3.03;;
26951;SDS011;14507;52.418;13.398;2023-08-01T06:08:09;6.75;;;3.22;;
26951;SDS011;14507;52.418;13.398;2023-08-01T06:10:35;5.70;;;3.33;;
26951;SDS011;14507;52.418;13.398;2023-08-01T06:13:01;7.07;;;3.10;;
26951;SDS011;14507;52.418;13.398;2023-08-01T06:15:27;7.40;;;3.53;;
26951;SDS011;14507;52.418;13.398;2023-08-01T06:17:52;6.18;;;3.45;;
26951;SDS011;14507;52.418;13.398;2023-08-01T06:20:18;6.03;;;3.20;;
26951;SDS011;14507;52.418;13.398;2023-08-01T06:22:44;5.32;;;3.10;;
26951;SDS011;14507;52.418;13.398;2023-08-01T06:25:09;8.95;;;3.15;;
26951;SDS011;14507;52.418;13.398;2023-08-01T06:27:35;5.97;;;3.17;;
26951;SDS011;14507;52.418;13.398;2023-08-01T06:30:02;5.38;;;2.90;;
26951;SDS011;14507;52.418;13.398;2023-08-01T06:32:27;5.55;;;3.00;;
26951;SDS011;14507;52.418;13.398;2023-08-01T06:34:53;5.97;;;3.20;;
26951;SDS011;14507;52.418;13.398;2023-08-01T06:37:18;5.47;;;3.15;;
26951;SDS011;14507;52.418;13.398;2023-08-01T06:39:44;5.95;;;3.25;;
26951;SDS011;14507;52.418;13.398;2023-08-01T06:42:11;7.25;;;3.05;;
26951;SDS011;14507;52.418;13.398;2023-08-01T06:44:37;5.63;;;2.58;;
26951;SDS011;14507;52.418;13.398;2023-08-01T06:47:02;6.25;;;2.90;;
26951;SDS011;14507;52.418;13.398;2023-08-01T06:49:28;8.80;;;3.03;;
26951;SDS011;14507;52.418;13.398;2023-08-01T06:51:54;5.88;;;2.75;;
26951;SDS011;14507;52.418;13.398;2023-08-01T06:54:19;6.15;;;2.95;;
26951;SDS011;14507;52.418;13.398;2023-08-01T06:56:45;6.13;;;3.15;;
26951;SDS011;14507;52.418;13.398;2023-08-01T06:59:15;6.43;;;2.70;;
26951;SDS011;14507;52.418;13.398;2023-08-01T07:01:41;7.65;;;3.17;;
26951;SDS011;14507;52.418;13.398;2023-08-01T07:04:09;5.43;;;2.50;;
26951;SDS011;14507;52.418;13.398;2023-08-01T07:06:35;5.85;;;2.97;;
26951;SDS011;14507;52.418;13.398;2023-08-01T07:09:01;5.63;;;3.10;;
26951;SDS011;14507;52.418;13.398;2023-08-01T07:11:26;5.53;;;2.92;;
26951;SDS011;14507;52.418;13.398;2023-08-01T07:13:52;6.47;;;3.25;;
26951;SDS011;14507;52.418;13.398;2023-08-01T07:16:18;4.65;;;2.78;;
26951;SDS011;14507;52.418;13.398;2023-08-01T07:18:43;4.82;;;2.40;;
26951;SDS011;14507;52.418;13.398;2023-08-01T07:21:09;4.70;;;3.05;;
26951;SDS011;14507;52.418;13.398;2023-08-01T07:23:35;5.55;;;2.45;;
26951;SDS011;14507;52.418;13.398;2023-08-01T07:26:01;6.45;;;3.15;;
26951;SDS011;14507;52.418;13.398;2023-08-01T07:28:27;4.63;;;2.50;;
26951;SDS011;14507;52.418;13.398;2023-08-01T07:31:03;7.10;;;2.83;;
26951;SDS011;14507;52.418;13.398;2023-08-01T07:33:30;8.97;;;3.00;;
26951;SDS011;14507;52.418;13.398;2023-08-01T07:35:56;4.80;;;2.45;;
26951;SDS011;14507;52.418;13.398;2023-08-01T07:38:22;4.88;;;2.45;;
26951;SDS011;14507;52.418;13.398;2023-08-01T07:40:48;5.72;;;2.85;;
26951;SDS011;14507;52.418;13.398;2023-08-01T07:43:13;6.40;;;2.60;;
26951;SDS011;14507;52.418;13.398;2023-08-01T07:45:39;6.05;;;2.40;;
26951;SDS011;14507;52.418;13.398;2023-08-01T07:48:08;5.57;;;2.47;;
26951;SDS011;14507;52.418;13.398;2023-08-01T07:50:33;5.05;;;2.38;;
26951;SDS011;14507;52.418;13.398;2023-08-01T07:52:59;3.45;;;2.05;;
26951;SDS011;14507;52.418;13.398;2023-08-01T07:55:24;4.40;;;2.00;;
26951;SDS011;14507;52.418;13.398;2023-08-01T07:57:50;4.80;;;1.92;;
26951;SDS011;14507;52.418;13.398;2023-08-01T08:00:16;4.03;;;2.25;;
26951;SDS011;14507;52.418;13.398;2023-08-01T08:02:42;3.83;;;2.00;;
26951;SDS011;14507;52.418;13.398;2023-08-01T08:05:08;4.63;;;2.30;;
26951;SDS011;14507;52.418;13.398;2023-08-01T08:07:35;6.10;;;2.03;;
26951;SDS011;14507;52.418;13.398;2023-08-01T08:10:02;4.05;;;2.10;;
26951;SDS011;14507;52.418;13.398;2023-08-01T08:12:28;3.88;;;1.83;;
26951;SDS011;14507;52.418;13.398;2023-08-01T08:14:54;3.78;;;2.00;;
26951;SDS011;14507;52.418;13.398;2023-08-01T08:17:19;4.28;;;1.95;;
26951;SDS011;14507;52.418;13.398;2023-08-01T08:19:45;7.97;;;2.00;;
26951;SDS011;14507;52.418;13.398;2023-08-01T08:22:11;3.55;;;1.73;;
26951;SDS011;14507;52.418;13.398;2023-08-01T08:24:36;4.43;;;1.80;;
26951;SDS011;14507;52.418;13.398;2023-08-01T08:27:02;4.32;;;1.75;;
26951;SDS011;14507;52.418;13.398;2023-08-01T08:29:28;5.60;;;1.73;;
26951;SDS011;14507;52.418;13.398;2023-08-01T08:31:54;5.55;;;1.80;;
26951;SDS011;14507;52.418;13.398;2023-08-01T08:34:20;4.13;;;1.30;;
26951;SDS011;14507;52.418;13.398;2023-08-01T08:36:45;4.93;;;1.70;;
26951;SDS011;14507;52.418;13.398;2023-08-01T08:39:11;2.67;;;1.25;;
26951;SDS011;14507;52.418;13.398;2023-08-01T08:41:38;4.78;;;1.88;;
26951;SDS011;14507;52.418;13.398;2023-08-01T08:44:10;2.80;;;1.40;;
26951;SDS011;14507;52.418;13.398;2023-08-01T08:46:40;3.90;;;1.73;;
26951;SDS011;14507;52.418;13.398;2023-08-01T08:49:08;2.47;;;1.13;;
26951;SDS011;14507;52.418;13.398;2023-08-01T08:51:34;4.05;;;1.10;;
26951;SDS011;14507;52.418;13.398;2023-08-01T08:54:02;7.10;;;1.40;;
26951;SDS011;14507;52.418;13.398;2023-08-01T08:56:28;3.03;;;1.17;;
26951;SDS011;14507;52.418;13.398;2023-08-01T08:58:54;3.22;;;1.20;;
26951;SDS011;14507;52.418;13.398;2023-08-01T09:01:21;6.05;;;1.40;;
26951;SDS011;14507;52.418;13.398;2023-08-01T09:03:47;2.08;;;1.05;;
26951;SDS011;14507;52.418;13.398;2023-08-01T09:06:16;2.28;;;0.95;;
26951;SDS011;14507;52.418;13.398;2023-08-01T09:09:09;4.72;;;1.38;;
26951;SDS011;14507;52.418;13.398;2023-08-01T09:11:45;2.38;;;1.25;;
26951;SDS011;14507;52.418;13.398;2023-08-01T09:14:13;1.20;;;0.77;;
26951;SDS011;14507;52.418;13.398;2023-08-01T09:16:39;1.13;;;0.70;;
26951;SDS011;14507;52.418;13.398;2023-08-01T09:19:06;1.05;;;0.65;;
26951;SDS011;14507;52.418;13.398;2023-08-01T09:21:33;1.95;;;0.75;;
26951;SDS011;14507;52.418;13.398;2023-08-01T09:24:19;1.73;;;0.82;;
26951;SDS011;14507;52.418;13.398;2023-08-01T09:26:46;1.27;;;0.60;;
26951;SDS011;14507;52.418;13.398;2023-08-01T09:29:15;2.28;;;0.68;;
26951;SDS011;14507;52.418;13.398;2023-08-01T09:31:42;3.25;;;0.60;;
26951;SDS011;14507;52.418;13.398;2023-08-01T09:34:21;3.25;;;0.90;;
26951;SDS011;14507;52.418;13.398;2023-08-01T09:36:49;2.30;;;0.77;;
26951;SDS011;14507;52.418;13.398;2023-08-01T09:39:16;1.58;;;0.50;;
26951;SDS011;14507;52.418;13.398;2023-08-01T09:41:43;1.55;;;0.70;;
26951;SDS011;14507;52.418;13.398;2023-08-01T09:44:15;1.75;;;0.80;;
26951;SDS011;14507;52.418;13.398;2023-08-01T09:46:41;2.85;;;0.82;;
26951;SDS011;14507;52.418;13.398;2023-08-01T09:49:09;1.13;;;0.60;;
26951;SDS011;14507;52.418;13.398;2023-08-01T09:51:57;7.50;;;0.73;;
26951;SDS011;14507;52.418;13.398;2023-08-01T09:54:22;1.27;;;0.60;;
26951;SDS011;14507;52.418;13.398;2023-08-01T09:56:49;1.75;;;0.50;;
26951;SDS011;14507;52.418;13.398;2023-08-01T10:01:43;2.63;;;0.60;;
26951;SDS011;14507;52.418;13.398;2023-08-01T10:04:11;3.13;;;1.05;;
26951;SDS011;14507;52.418;13.398;2023-08-01T10:06:38;2.85;;;0.80;;
26951;SDS011;14507;52.418;13.398;2023-08-01T10:09:09;1.17;;;0.60;;
26951;SDS011;14507;52.418;13.398;2023-08-01T10:11:36;4.80;;;0.90;;
26951;SDS011;14507;52.418;13.398;2023-08-01T10:14:03;6.15;;;0.95;;
26951;SDS011;14507;52.418;13.398;2023-08-01T10:16:30;1.52;;;0.73;;
26951;SDS011;14507;52.418;13.398;2023-08-01T10:18:56;1.00;;;0.63;;
26951;SDS011;14507;52.418;13.398;2023-08-01T10:21:23;2.55;;;0.90;;
26951;SDS011;14507;52.418;13.398;2023-08-01T10:23:51;1.38;;;0.65;;
26951;SDS011;14507;52.418;13.398;2023-08-01T10:26:17;2.80;;;0.40;;
26951;SDS011;14507;52.418;13.398;2023-08-01T10:28:49;1.35;;;0.43;;
26951;SDS011;14507;52.418;13.398;2023-08-01T10:31:16;2.40;;;0.70;;
26951;SDS011;14507;52.418;13.398;2023-08-01T10:36:16;2.22;;;0.70;;
26951;SDS011;14507;52.418;13.398;2023-08-01T10:38:54;2.45;;;0.57;;
26951;SDS011;14507;52.418;13.398;2023-08-01T10:41:31;2.80;;;0.77;;
26951;SDS011;14507;52.418;13.398;2023-08-01T10:44:04;1.33;;;0.63;;
26951;SDS011;14507;52.418;13.398;2023-08-01T10:46:44;2.58;;;0.60;;
26951;SDS011;14507;52.418;13.398;2023-08-01T10:49:10;1.85;;;0.40;;
26951;SDS011;14507;52.418;13.398;2023-08-01T10:51:36;3.28;;;0.50;;
26951;SDS011;14507;52.418;13.398;2023-08-01T10:54:02;4.68;;;0.50;;
26951;SDS011;14507;52.418;13.398;2023-08-01T10:56:27;3.40;;;1.05;;
26951;SDS011;14507;52.418;13.398;2023-08-01T10:58:54;1.05;;;0.50;;
26951;SDS011;14507;52.418;13.398;2023-08-01T11:01:19;1.73;;;0.60;;
26951;SDS011;14507;52.418;13.398;2023-08-01T11:03:45;1.63;;;0.50;;
26951;SDS011;14507;52.418;13.398;2023-08-01T11:06:11;2.15;;;0.70;;
26951;SDS011;14507;52.418;13.398;2023-08-01T11:08:37;1.80;;;0.77;;
26951;SDS011;14507;52.418;13.398;2023-08-01T11:11:07;1.15;;;0.50;;
26951;SDS011;14507;52.418;13.398;2023-08-01T11:13:36;1.67;;;0.80;;
26951;SDS011;14507;52.418;13.398;2023-08-01T11:16:02;3.60;;;1.05;;
26951;SDS011;14507;52.418;13.398;2023-08-01T11:20:55;0.80;;;0.47;;
26951;SDS011;14507;52.418;13.398;2023-08-01T11:23:27;1.42;;;0.70;;
26951;SDS011;14507;52.418;13.398;2023-08-01T11:25:53;3.20;;;0.68;;
26951;SDS011;14507;52.418;13.398;2023-08-01T11:28:20;1.52;;;0.60;;
26951;SDS011;14507;52.418;13.398;2023-08-01T11:30:45;3.30;;;1.08;;
26951;SDS011;14507;52.418;13.398;2023-08-01T11:33:21;3.92;;;1.00;;
26951;SDS011;14507;52.418;13.398;2023-08-01T11:35:54;2.50;;;1.17;;
26951;SDS011;14507;52.418;13.398;2023-08-01T11:38:26;2.50;;;1.05;;
26951;SDS011;14507;52.418;13.398;2023-08-01T11:40:54;5.10;;;1.75;;
26951;SDS011;14507;52.418;13.398;2023-08-01T11:43:22;3.13;;;1.50;;
26951;SDS011;14507;52.418;13.398;2023-08-01T11:45:54;3.97;;;1.45;;
26951;SDS011;14507;52.418;13.398;2023-08-01T11:48:24;3.17;;;1.70;;
26951;SDS011;14507;52.418;13.398;2023-08-01T11:50:55;4.85;;;1.80;;
26951;SDS011;14507;52.418;13.398;2023-08-01T11:53:24;4.82;;;1.90;;
26951;SDS011;14507;52.418;13.398;2023-08-01T11:55:51;6.90;;;2.72;;
26951;SDS011;14507;52.418;13.398;2023-08-01T11:58:30;4.90;;;2.35;;
26951;SDS011;14507;52.418;13.398;2023-08-01T12:03:30;4.93;;;2.35;;
26951;SDS011;14507;52.418;13.398;2023-08-01T12:06:05;4.45;;;2.22;;
26951;SDS011;14507;52.418;13.398;2023-08-01T12:08:36;7.57;;;2.83;;
26951;SDS011;14507;52.418;13.398;2023-08-01T12:11:02;4.80;;;2.20;;
26951;SDS011;14507;52.418;13.398;2023-08-01T12:13:28;5.13;;;2.38;;
26951;SDS011;14507;52.418;13.398;2023-08-01T12:15:56;3.58;;;2.03;;
26951;SDS011;14507;52.418;13.398;2023-08-01T12:18:26;5.10;;;2.42;;
26951;SDS011;14507;52.418;13.398;2023-08-01T12:20:53;6.53;;;2.65;;
26951;SDS011;14507;52.418;13.398;2023-08-01T12:23:19;6.70;;;2.67;;
26951;SDS011;14507;52.418;13.398;2023-08-01T12:25:48;5.57;;;2.40;;
26951;SDS011;14507;52.418;13.398;2023-08-01T12:28:14;4.93;;;2.45;;
26951;SDS011;14507;52.418;13.398;2023-08-01T12:30:40;6.43;;;2.50;;
26951;SDS011;14507;52.418;13.398;2023-08-01T12:33:07;6.00;;;2.70;;
26951;SDS011;14507;52.418;13.398;2023-08-01T12:35:33;9.35;;;2.80;;
26951;SDS011;14507;52.418;13.398;2023-08-01T12:37:59;6.60;;;2.42;;
26951;SDS011;14507;52.418;13.398;2023-08-01T12:40:24;8.40;;;2.92;;
26951;SDS011;14507;52.418;13.398;2023-08-01T12:42:50;7.50;;;2.95;;
26951;SDS011;14507;52.418;13.398;2023-08-01T12:45:16;6.00;;;2.38;;
26951;SDS011;14507;52.418;13.398;2023-08-01T12:47:41;6.43;;;2.47;;
26951;SDS011;14507;52.418;13.398;2023-08-01T12:50:07;3.78;;;2.15;;
26951;SDS011;14507;52.418;13.398;2023-08-01T12:52:36;8.10;;;3.35;;
26951;SDS011;14507;52.418;13.398;2023-08-01T12:55:01;4.90;;;2.78;;
26951;SDS011;14507;52.418;13.398;2023-08-01T12:57:27;5.40;;;2.28;;
26951;SDS011;14507;52.418;13.398;2023-08-01T12:59:52;4.93;;;2.28;;
26951;SDS011;14507;52.418;13.398;2023-08-01T13:02:18;5.10;;;2.45;;
26951;SDS011;14507;52.418;13.398;2023-08-01T13:04:44;3.90;;;2.55;;
26951;SDS011;14507;52.418;13.398;2023-08-01T13:07:09;4.68;;;2.63;;
26951;SDS011;14507;52.418;13.398;2023-08-01T13:09:35;6.50;;;2.72;;
26951;SDS011;14507;52.418;13.398;2023-08-01T13:12:00;6.47;;;2.72;;
26951;SDS011;14507;52.418;13.398;2023-08-01T13:14:26;6.43;;;2.47;;
26951;SDS011;14507;52.418;13.398;2023-08-01T13:16:51;4.75;;;2.40;;
26951;SDS011;14507;52.418;13.398;2023-08-01T13:19:17;5.93;;;2.83;;
26951;SDS011;14507;52.418;13.398;2023-08-01T13:21:43;6.32;;;2.72;;
26951;SDS011;14507;52.418;13.398;2023-08-01T13:24:09;7.55;;;3.22;;
26951;SDS011;14507;52.418;13.398;2023-08-01T13:26:34;7.68;;;3.03;;
26951;SDS011;14507;52.418;13.398;2023-08-01T13:29:01;8.10;;;3.05;;
26951;SDS011;14507;52.418;13.398;2023-08-01T13:31:27;8.35;;;2.63;;
26951;SDS011;14507;52.418;13.398;2023-08-01T13:33:53;5.93;;;2.88;;
26951;SDS011;14507;52.418;13.398;2023-08-01T13:36:20;8.70;;;2.90;;
26951;SDS011;14507;52.418;13.398;2023-08-01T13:38:46;7.28;;;2.45;;
26951;SDS011;14507;52.418;13.398;2023-08-01T13:41:11;5.60;;;2.80;;
26951;SDS011;14507;52.418;13.398;2023-08-01T13:43:37;5.18;;;2.40;;
26951;SDS011;14507;52.418;13.398;2023-08-01T13:46:16;5.35;;;2.20;;
26951;SDS011;14507;52.418;13.398;2023-08-01T13:48:43;5.93;;;2.97;;
26951;SDS011;14507;52.418;13.398;2023-08-01T13:51:10;8.18;;;3.25;;
26951;SDS011;14507;52.418;13.398;2023-08-01T13:53:36;5.97;;;2.55;;
26951;SDS011;14507;52.418;13.398;2023-08-01T13:56:09;6.55;;;2.38;;
26951;SDS011;14507;52.418;13.398;2023-08-01T13:58:35;5.72;;;2.40;;
26951;SDS011;14507;52.418;13.398;2023-08-01T14:01:06;5.13;;;2.60;;
26951;SDS011;14507;52.418;13.398;2023-08-01T14:03:33;5.60;;;3.00;;
26951;SDS011;14507;52.418;13.398;2023-08-01T14:06:03;4.88;;;2.33;;
26951;SDS011;14507;52.418;13.398;2023-08-01T14:08:33;4.82;;;2.47;;
26951;SDS011;14507;52.418;13.398;2023-08-01T14:10:59;8.57;;;2.80;;
26951;SDS011;14507;52.418;13.398;2023-08-01T14:13:25;7.93;;;2.83;;
26951;SDS011;14507;52.418;13.398;2023-08-01T14:15:51;6.95;;;2.70;;
26951;SDS011;14507;52.418;13.398;2023-08-01T14:18:17;5.57;;;2.35;;
26951;SDS011;14507;52.418;13.398;2023-08-01T14:20:42;4.07;;;2.30;;
26951;SDS011;14507;52.418;13.398;2023-08-01T14:23:08;7.85;;;2.30;;
26951;SDS011;14507;52.418;13.398;2023-08-01T14:25:34;4.60;;;2.00;;
26951;SDS011;14507;52.418;13.398;2023-08-01T14:28:00;4.03;;;2.17;;
26951;SDS011;14507;52.418;13.398;2023-08-01T14:30:25;5.57;;;2.50;;
26951;SDS011;14507;52.418;13.398;2023-08-01T14:32:54;6.68;;;2.45;;
26951;SDS011;14507;52.418;13.398;2023-08-01T14:35:24;5.40;;;2.00;;
26951;SDS011;14507;52.418;13.398;2023-08-01T14:37:50;3.90;;;1.90;;
26951;SDS011;14507;52.418;13.398;2023-08-01T14:40:16;3.95;;;1.85;;
26951;SDS011;14507;52.418;13.398;2023-08-01T14:42:41;4.50;;;2.20;;